Time;durP1;ratioP1;P1;durP2;ratioP2;P2;SDS_P1;SDS_P2;PMS_P1;PMS_P2;Temp;Humidity;BMP_temperature;BMP_pressure;BME280_temperature;BME280_humidity;BME280_pressure;Samples;Min_cycle;Max_cycle;Signal;HPM_P1;HPM_P2
2022/09/02 00:01:49;;;;;;;0.30;0.30;;;13.50;99.90;;;;;;5067163;28;20682;-80
2022/09/02 00:04:16;;;;;;;;;;;13.40;99.90;;;;;;5088485;28;20040;-81
2022/09/02 00:06:44;;;;;;;0.30;0.30;;;13.40;99.90;;;;;;5101813;28;19923;-81
2022/09/02 00:09:12;;;;;;;0.43;0.43;;;13.30;99.90;;;;;;5068763;28;20033;-81
2022/09/02 00:11:40;;;;;;;0.32;0.32;;;13.30;99.90;;;;;;5102112;28;20047;-80
2022/09/02 00:14:10;;;;;;;0.60;0.60;;;13.30;99.90;;;;;;5085187;28;20044;-80
2022/09/02 00:16:36;;;;;;;0.40;0.40;;;13.30;99.90;;;;;;5098125;28;20044;-80
2022/09/02 00:19:03;;;;;;;0.40;0.40;;;13.30;99.90;;;;;;5071703;28;20466;-80
2022/09/02 00:21:33;;;;;;;0.40;0.40;;;13.20;99.90;;;;;;5105949;28;20043;-80
2022/09/02 00:23:59;;;;;;;0.30;0.30;;;13.20;99.90;;;;;;5086580;28;20048;-81
2022/09/02 00:26:26;;;;;;;0.40;0.40;;;13.20;99.90;;;;;;5055404;28;20052;-80
2022/09/02 00:28:52;;;;;;;0.30;0.30;;;13.20;99.90;;;;;;5064848;28;20101;-80
2022/09/02 00:31:18;;;;;;;0.30;0.30;;;13.10;99.90;;;;;;5079618;28;20457;-80
2022/09/02 00:33:44;;;;;;;0.30;0.30;;;13.10;99.90;;;;;;5071709;28;20115;-81
2022/09/02 00:36:10;;;;;;;0.45;0.45;;;13.10;99.90;;;;;;5086868;28;20557;-80
2022/09/02 00:38:36;;;;;;;0.40;0.40;;;13.00;99.90;;;;;;5094098;28;20115;-81
2022/09/02 00:41:06;;;;;;;0.30;0.30;;;13.00;99.90;;;;;;5065994;28;20035;-80
2022/09/02 00:43:45;;;;;;;0.40;0.40;;;13.00;99.90;;;;;;5070062;28;20048;-81
2022/09/02 00:46:13;;;;;;;1.10;1.10;;;12.90;99.90;;;;;;5098039;28;20043;-81
2022/09/02 00:48:44;;;;;;;0.30;0.30;;;12.90;99.90;;;;;;5108804;28;20124;-81
2022/09/02 00:51:11;;;;;;;0.40;0.40;;;12.90;99.90;;;;;;5089787;28;20342;-81
2022/09/02 00:53:39;;;;;;;0.32;0.32;;;12.90;99.90;;;;;;5079881;28;20384;-81
2022/09/02 00:56:11;;;;;;;0.30;0.30;;;12.80;99.90;;;;;;5096382;28;20036;-81
2022/09/02 00:58:38;;;;;;;0.55;0.55;;;12.80;99.90;;;;;;5080709;28;20044;-81
2022/09/02 01:01:04;;;;;;;0.40;0.40;;;12.80;99.90;;;;;;5079347;28;20028;-80
2022/09/02 01:03:32;;;;;;;0.50;0.50;;;12.80;99.90;;;;;;5058461;28;20036;-81
2022/09/02 01:05:59;;;;;;;0.38;0.38;;;12.80;99.90;;;;;;5079078;28;20036;-80
2022/09/02 01:08:28;;;;;;;0.40;0.40;;;12.70;99.90;;;;;;5089694;28;20042;-80
2022/09/02 01:10:55;;;;;;;0.40;0.40;;;12.70;99.90;;;;;;5109875;28;20082;-80
2022/09/02 01:13:25;;;;;;;0.40;0.40;;;12.70;99.90;;;;;;5087490;28;20445;-80
2022/09/02 01:16:15;;;;;;;0.40;0.40;;;12.70;99.90;;;;;;5081100;28;20130;-79
2022/09/02 01:18:46;;;;;;;0.32;0.32;;;12.70;99.90;;;;;;5073200;28;20052;-80
2022/09/02 01:21:13;;;;;;;0.32;0.32;;;12.60;99.90;;;;;;5088103;28;20052;-82
2022/09/02 01:23:38;;;;;;;0.80;0.80;;;12.60;99.90;;;;;;5087650;28;20112;-79
2022/09/02 01:26:06;;;;;;;0.30;0.30;;;12.60;99.90;;;;;;5070390;28;20104;-82
2022/09/02 01:28:33;;;;;;;0.32;0.32;;;12.60;99.90;;;;;;5097181;28;20111;-82
2022/09/02 01:30:59;;;;;;;0.40;0.40;;;12.60;99.90;;;;;;5093568;28;20532;-81
2022/09/02 01:33:25;;;;;;;0.50;0.50;;;12.60;99.90;;;;;;5079715;28;20397;-81
2022/09/02 01:35:51;;;;;;;;;;;12.50;99.90;;;;;;5096809;28;20484;-80
2022/09/02 01:38:17;;;;;;;0.50;0.50;;;12.50;99.90;;;;;;5080879;28;19916;-81
2022/09/02 01:40:44;;;;;;;0.70;0.70;;;12.40;99.90;;;;;;5089339;28;20028;-81
2022/09/02 01:43:17;;;;;;;0.20;0.20;;;12.40;99.90;;;;;;5078190;28;20438;-80
2022/09/02 01:45:45;;;;;;;0.40;0.40;;;12.30;99.90;;;;;;5071523;28;20090;-81
2022/09/02 01:48:12;;;;;;;0.45;0.45;;;12.30;99.90;;;;;;5060722;28;20044;-80
2022/09/02 01:50:40;;;;;;;0.50;0.50;;;12.20;99.90;;;;;;5079978;28;20047;-80
2022/09/02 01:53:06;;;;;;;0.40;0.40;;;12.20;99.90;;;;;;5088089;28;20043;-81
2022/09/02 01:55:32;;;;;;;0.40;0.40;;;12.10;99.90;;;;;;5084562;28;20051;-80
2022/09/02 01:58:04;;;;;;;0.40;0.40;;;12.10;99.90;;;;;;5085130;28;20409;-81
2022/09/02 02:00:30;;;;;;;0.30;0.30;;;12.10;99.90;;;;;;5070698;28;20050;-78
2022/09/02 02:02:55;;;;;;;0.40;0.40;;;12.00;99.90;;;;;;5075836;28;20044;-79
2022/09/02 02:05:22;;;;;;;0.30;0.30;;;12.00;99.90;;;;;;5089166;28;20052;-79
2022/09/02 02:07:47;;;;;;;;;;;12.00;99.90;;;;;;5095296;28;20040;-80
2022/09/02 02:10:15;;;;;;;0.32;0.32;;;12.00;99.90;;;;;;5077894;28;19922;-80
2022/09/02 02:12:42;;;;;;;0.55;0.50;;;11.90;99.90;;;;;;5097895;28;20040;-80
2022/09/02 02:15:14;;;;;;;0.40;0.40;;;11.90;99.90;;;;;;5073746;28;20509;-81
2022/09/02 02:17:40;;;;;;;0.20;0.20;;;11.80;99.90;;;;;;5082509;28;20035;-80
2022/09/02 02:20:08;;;;;;;0.32;0.32;;;11.80;99.90;;;;;;5109365;28;20040;-80
2022/09/02 02:22:35;;;;;;;0.30;0.30;;;11.80;99.90;;;;;;5086133;28;20046;-80
2022/09/02 02:25:02;;;;;;;0.30;0.30;;;11.70;99.90;;;;;;5082773;28;20053;-80
2022/09/02 02:27:28;;;;;;;0.38;0.38;;;11.70;99.90;;;;;;5088778;28;20465;-79
2022/09/02 02:29:54;;;;;;;0.40;0.40;;;11.70;99.90;;;;;;5084745;28;20059;-80
2022/09/02 02:32:20;;;;;;;0.45;0.45;;;11.70;99.90;;;;;;5066601;28;20486;-80
2022/09/02 02:34:46;;;;;;;0.50;0.50;;;11.60;99.90;;;;;;5069785;28;20036;-79
2022/09/02 02:37:13;;;;;;;0.40;0.40;;;11.50;99.90;;;;;;5082568;28;20082;-80
2022/09/02 02:39:40;;;;;;;0.43;0.43;;;11.50;99.90;;;;;;5105860;28;20565;-80
2022/09/02 02:42:07;;;;;;;0.40;0.40;;;11.50;99.90;;;;;;5076350;28;20120;-80
2022/09/02 02:44:33;;;;;;;0.68;0.68;;;11.50;99.90;;;;;;5089357;28;20373;-81
2022/09/02 02:47:00;;;;;;;0.40;0.40;;;11.40;99.90;;;;;;5095973;28;20118;-81
2022/09/02 02:49:26;;;;;;;0.82;0.82;;;11.40;99.90;;;;;;5084274;28;20036;-81
2022/09/02 02:51:52;;;;;;;;;;;11.40;99.90;;;;;;5102118;28;20473;-81
2022/09/02 02:54:20;;;;;;;0.40;0.40;;;11.30;99.90;;;;;;5063931;28;19928;-81
2022/09/02 02:56:46;;;;;;;0.50;0.50;;;11.30;99.90;;;;;;5066640;28;20043;-79
2022/09/02 02:59:12;;;;;;;0.50;0.50;;;11.20;99.90;;;;;;5084260;28;20044;-81
2022/09/02 03:01:37;;;;;;;0.40;0.40;;;11.20;99.90;;;;;;5079312;28;20044;-80
2022/09/02 03:04:04;;;;;;;0.32;0.32;;;11.20;99.90;;;;;;5102499;28;20044;-78
2022/09/02 03:06:30;;;;;;;0.40;0.40;;;11.10;99.90;;;;;;5085941;28;20044;-81
2022/09/02 03:08:56;;;;;;;0.50;0.50;;;11.10;99.90;;;;;;5079137;28;20068;-81
2022/09/02 03:11:22;;;;;;;0.50;0.50;;;11.10;99.90;;;;;;5084578;28;20039;-79
2022/09/02 03:13:48;;;;;;;;;;;11.00;99.90;;;;;;5111403;28;20388;-77
2022/09/02 03:16:15;;;;;;;0.63;0.63;;;11.00;99.90;;;;;;5089775;28;20006;-78
2022/09/02 03:18:41;;;;;;;0.30;0.30;;;11.00;99.90;;;;;;5103412;28;20289;-81
2022/09/02 03:21:08;;;;;;;0.50;0.50;;;10.90;99.90;;;;;;5106592;28;20401;-81
2022/09/02 03:23:35;;;;;;;0.40;0.40;;;10.90;99.90;;;;;;5090346;28;20478;-80
2022/09/02 03:26:00;;;;;;;0.40;0.40;;;10.90;99.90;;;;;;5099010;28;20217;-81
2022/09/02 03:28:26;;;;;;;0.57;0.57;;;10.90;99.90;;;;;;5084225;28;20504;-81
2022/09/02 03:30:52;;;;;;;0.30;0.30;;;10.80;99.90;;;;;;5087257;28;20059;-81
2022/09/02 03:33:17;;;;;;;0.40;0.40;;;10.80;99.90;;;;;;5082759;28;20106;-81
2022/09/02 03:35:44;;;;;;;0.50;0.50;;;10.80;99.90;;;;;;5086199;28;20088;-80
2022/09/02 03:38:11;;;;;;;0.47;0.47;;;10.80;99.90;;;;;;5069483;28;20135;-82
2022/09/02 03:40:38;;;;;;;0.40;0.40;;;10.70;99.90;;;;;;5085494;28;20048;-82
2022/09/02 03:43:04;;;;;;;0.40;0.40;;;10.70;99.90;;;;;;5086294;28;20079;-81
2022/09/02 03:45:30;;;;;;;0.40;0.40;;;10.70;99.90;;;;;;5078471;28;20075;-81
2022/09/02 03:47:58;;;;;;;0.55;0.55;;;10.70;99.90;;;;;;5071457;28;20036;-82
2022/09/02 03:50:26;;;;;;;0.50;0.50;;;10.60;99.90;;;;;;5086256;28;20035;-82
2022/09/02 03:52:53;;;;;;;0.52;0.52;;;10.60;99.90;;;;;;5087795;28;20051;-81
2022/09/02 03:55:19;;;;;;;0.47;0.47;;;10.60;99.90;;;;;;5072377;28;20032;-81
2022/09/02 03:57:45;;;;;;;0.60;0.60;;;10.60;99.90;;;;;;5060513;28;20355;-82
2022/09/02 04:00:14;;;;;;;0.50;0.50;;;10.50;99.90;;;;;;5087446;28;20505;-80
2022/09/02 04:02:40;;;;;;;0.50;0.50;;;10.50;99.90;;;;;;5086759;28;20494;-81
2022/09/02 04:05:06;;;;;;;0.50;0.50;;;10.50;99.90;;;;;;5094337;28;20398;-81
2022/09/02 04:07:32;;;;;;;;;;;10.50;99.90;;;;;;5071513;28;20053;-81
2022/09/02 04:09:58;;;;;;;0.50;0.50;;;10.40;99.90;;;;;;5087829;28;19965;-81
2022/09/02 04:12:24;;;;;;;0.45;0.45;;;10.40;99.90;;;;;;5086358;28;20523;-79
2022/09/02 04:14:49;;;;;;;0.40;0.40;;;10.40;99.90;;;;;;5067222;28;20083;-80
2022/09/02 04:17:15;;;;;;;0.50;0.50;;;10.40;99.90;;;;;;5070756;28;20546;-82
2022/09/02 04:19:41;;;;;;;0.50;0.50;;;10.40;99.90;;;;;;5067837;28;20401;-81
2022/09/02 04:22:07;;;;;;;0.50;0.50;;;10.30;99.90;;;;;;5075478;28;20036;-80
2022/09/02 04:24:33;;;;;;;0.40;0.40;;;10.30;99.90;;;;;;5085123;28;20043;-81
2022/09/02 04:26:59;;;;;;;0.50;0.50;;;10.30;99.90;;;;;;5090048;28;20040;-80
2022/09/02 04:29:25;;;;;;;;;;;10.30;99.90;;;;;;5096677;28;20516;-80
2022/09/02 04:31:51;;;;;;;0.38;0.38;;;10.30;99.90;;;;;;5093573;28;19920;-80
2022/09/02 04:34:18;;;;;;;0.35;0.35;;;10.20;99.90;;;;;;5069648;28;20040;-80
2022/09/02 04:36:44;;;;;;;0.40;0.40;;;10.20;99.90;;;;;;5077311;28;20390;-80
2022/09/02 04:39:09;;;;;;;0.55;0.55;;;10.20;99.90;;;;;;5073259;28;20306;-79
2022/09/02 04:41:36;;;;;;;0.45;0.45;;;10.20;99.90;;;;;;5088928;28;20392;-80
2022/09/02 04:44:03;;;;;;;0.50;0.50;;;10.10;99.90;;;;;;5091826;28;20028;-79
2022/09/02 04:46:29;;;;;;;0.40;0.40;;;10.10;99.90;;;;;;5096102;28;20127;-79
2022/09/02 04:48:55;;;;;;;0.50;0.50;;;10.00;99.90;;;;;;5092746;28;20040;-79
2022/09/02 04:51:22;;;;;;;;;;;10.10;99.90;;;;;;5111838;28;20043;-78
2022/09/02 04:53:49;;;;;;;0.50;0.50;;;10.00;99.90;;;;;;5073729;28;19926;-79
2022/09/02 04:56:18;;;;;;;0.60;0.60;;;10.00;99.90;;;;;;5070665;28;20063;-79
2022/09/02 04:58:44;;;;;;;0.40;0.40;;;10.00;99.90;;;;;;5086286;28;20039;-79
2022/09/02 05:01:16;;;;;;;0.40;0.40;;;10.00;99.90;;;;;;5071129;28;20044;-79
2022/09/02 05:03:43;;;;;;;0.50;0.50;;;10.00;99.90;;;;;;5085872;28;20051;-80
2022/09/02 05:06:12;;;;;;;0.40;0.40;;;10.00;99.90;;;;;;5079877;28;20047;-81
2022/09/02 05:08:37;;;;;;;0.45;0.45;;;10.10;99.90;;;;;;5074060;28;20543;-82
2022/09/02 05:11:27;;;;;;;0.50;0.50;;;10.10;99.90;;;;;;5088845;28;20119;-79
2022/09/02 05:13:55;;;;;;;0.40;0.40;;;10.10;99.90;;;;;;5069905;28;20101;-80
2022/09/02 05:16:27;;;;;;;0.38;0.38;;;10.10;99.90;;;;;;5091188;28;20100;-80
2022/09/02 05:18:53;;;;;;;0.30;0.30;;;10.20;99.90;;;;;;5060090;28;20055;-80
2022/09/02 05:21:19;;;;;;;0.40;0.40;;;10.20;99.90;;;;;;5102209;28;20044;-80
2022/09/02 05:23:45;;;;;;;;;;;10.20;99.90;;;;;;5100391;28;20047;-80
2022/09/02 05:26:12;;;;;;;0.50;0.50;;;10.30;99.90;;;;;;5092141;28;19957;-80
2022/09/02 05:28:40;;;;;;;1.30;1.27;;;10.40;99.90;;;;;;5084488;28;20047;-79
2022/09/02 05:31:11;;;;;;;0.43;0.43;;;10.40;99.90;;;;;;5085364;28;20388;-80
2022/09/02 05:33:39;;;;;;;0.47;0.47;;;10.50;99.90;;;;;;5087180;28;20054;-82
2022/09/02 05:36:07;;;;;;;0.40;0.40;;;10.60;99.90;;;;;;5074687;28;21650;-83
2022/09/02 05:38:33;;;;;;;0.47;0.47;;;10.60;99.90;;;;;;5090459;28;20143;-80
2022/09/02 05:41:06;;;;;;;;;;;10.70;99.90;;;;;;5088703;28;20623;-79
2022/09/02 05:43:36;;;;;;;0.40;0.40;;;10.80;99.90;;;;;;5083019;28;20019;-79
2022/09/02 05:46:07;;;;;;;0.50;0.50;;;10.80;99.90;;;;;;5078690;28;20039;-79
2022/09/02 05:51:18;;;;;;;0.40;0.40;;;10.90;99.90;;;;;;5080397;28;20490;-80
2022/09/02 05:53:44;;;;;;;0.50;0.50;;;11.10;99.90;;;;;;5090377;28;20188;-80
2022/09/02 05:56:10;;;;;;;0.40;0.40;;;11.10;99.90;;;;;;5071814;28;20036;-80
2022/09/02 05:58:36;;;;;;;0.50;0.50;;;11.20;99.90;;;;;;5068138;28;20047;-80
2022/09/02 06:01:13;;;;;;;0.50;0.50;;;11.30;99.90;;;;;;5084183;28;20040;-79
2022/09/02 06:03:39;;;;;;;0.52;0.52;;;11.40;99.90;;;;;;5062603;28;20040;-78
2022/09/02 06:06:06;;;;;;;0.43;0.43;;;11.50;99.90;;;;;;5092370;28;20036;-80
2022/09/02 06:08:33;;;;;;;0.43;0.43;;;11.50;99.90;;;;;;5087280;28;20055;-78
2022/09/02 06:11:00;;;;;;;0.32;0.32;;;11.60;99.90;;;;;;5083843;28;20056;-80
2022/09/02 06:13:30;;;;;;;0.30;0.30;;;11.70;99.90;;;;;;5089084;28;20055;-80
2022/09/02 06:15:56;;;;;;;0.40;0.40;;;11.80;99.90;;;;;;5091157;28;20039;-81
2022/09/02 06:18:22;;;;;;;0.40;0.40;;;11.90;99.90;;;;;;5090751;28;20362;-81
2022/09/02 06:20:48;;;;;;;;;;;12.00;99.90;;;;;;5098335;28;20098;-81
2022/09/02 06:23:15;;;;;;;0.30;0.30;;;12.10;99.90;;;;;;5085845;28;19920;-78
2022/09/02 06:25:44;;;;;;;0.38;0.38;;;12.20;99.90;;;;;;5089448;28;20060;-80
2022/09/02 06:28:10;;;;;;;0.40;0.40;;;12.40;99.90;;;;;;5091839;28;20556;-80
2022/09/02 06:30:44;;;;;;;0.40;0.40;;;12.50;99.90;;;;;;5102635;28;20108;-80
2022/09/02 06:33:11;;;;;;;0.30;0.30;;;12.70;99.90;;;;;;5085926;28;20159;-80
2022/09/02 06:35:40;;;;;;;0.40;0.40;;;12.80;99.90;;;;;;5095488;28;20119;-80
2022/09/02 06:38:06;;;;;;;0.50;0.50;;;13.00;99.90;;;;;;5087389;28;20119;-80
2022/09/02 06:40:32;;;;;;;0.40;0.40;;;13.10;99.90;;;;;;5073223;28;20404;-80
2022/09/02 06:42:58;;;;;;;0.30;0.30;;;13.30;99.90;;;;;;5086971;28;20119;-80
2022/09/02 06:45:24;;;;;;;;;;;13.50;99.90;;;;;;5085185;28;20123;-80
2022/09/02 06:47:50;;;;;;;0.43;0.43;;;13.60;99.90;;;;;;5084863;28;20003;-79
2022/09/02 06:50:16;;;;;;;0.40;0.40;;;13.70;99.90;;;;;;5083581;28;20043;-80
2022/09/02 06:52:42;;;;;;;0.30;0.30;;;13.80;99.90;;;;;;5088822;28;20056;-80
2022/09/02 06:55:09;;;;;;;0.30;0.30;;;14.00;99.90;;;;;;5084379;28;20397;-80
2022/09/02 06:57:36;;;;;;;0.32;0.32;;;14.10;99.90;;;;;;5088357;28;20040;-80
2022/09/02 07:00:08;;;;;;;0.30;0.30;;;14.30;99.90;;;;;;5070898;28;20036;-79
2022/09/02 07:02:34;;;;;;;0.47;0.47;;;14.40;99.90;;;;;;5073837;28;20040;-80
2022/09/02 07:05:08;;;;;;;;;;;14.50;99.90;;;;;;5063696;28;20396;-80
2022/09/02 07:07:39;;;;;;;0.38;0.38;;;14.60;99.90;;;;;;5086566;28;19955;-80
2022/09/02 07:10:08;;;;;;;0.30;0.30;;;14.80;99.90;;;;;;5086816;28;20044;-79
2022/09/02 07:12:43;;;;;;;0.47;0.47;;;14.80;99.90;;;;;;5086977;28;20051;-79
2022/09/02 07:15:09;;;;;;;0.35;0.35;;;14.90;99.90;;;;;;5082753;28;20481;-79
2022/09/02 07:17:34;;;;;;;0.20;0.20;;;15.00;99.90;;;;;;5068431;28;20123;-79
2022/09/02 07:20:00;;;;;;;0.47;0.47;;;15.10;99.90;;;;;;5083876;28;20044;-79
2022/09/02 07:22:27;;;;;;;;;;;15.20;99.90;;;;;;5049932;28;20122;-79
2022/09/02 07:24:53;;;;;;;0.30;0.30;;;15.30;99.90;;;;;;5089562;28;19924;-81
2022/09/02 07:27:19;;;;;;;0.32;0.32;;;15.50;99.90;;;;;;5080089;28;20083;-79
2022/09/02 07:29:47;;;;;;;0.30;0.30;;;15.60;99.90;;;;;;5078372;28;20098;-81
2022/09/02 07:32:13;;;;;;;0.30;0.30;;;15.70;99.90;;;;;;5085672;28;20065;-81
2022/09/02 07:34:39;;;;;;;0.30;0.30;;;15.80;99.90;;;;;;5089781;28;20443;-80
2022/09/02 07:37:05;;;;;;;0.30;0.30;;;15.80;99.90;;;;;;5079406;28;20036;-79
2022/09/02 07:39:31;;;;;;;;;;;15.90;99.90;;;;;;5077830;28;20040;-79
2022/09/02 07:41:57;;;;;;;0.20;0.20;;;16.00;99.90;;;;;;5084133;28;20250;-79
2022/09/02 07:44:22;;;;;;;;;;;16.10;99.90;;;;;;5088366;28;20039;-80
2022/09/02 07:46:48;;;;;;;0.30;0.30;;;16.20;99.90;;;;;;5072207;28;20471;-80
2022/09/02 07:49:15;;;;;;;0.20;0.20;;;16.20;99.90;;;;;;5083922;28;20135;-80
2022/09/02 07:51:47;;;;;;;0.20;0.20;;;16.40;99.90;;;;;;5088197;28;20051;-80
2022/09/02 07:54:14;;;;;;;0.20;0.20;;;16.50;99.90;;;;;;5084202;28;20036;-80
2022/09/02 07:56:40;;;;;;;0.75;0.30;;;16.60;99.90;;;;;;5089361;28;20063;-80
2022/09/02 07:59:06;;;;;;;0.28;0.28;;;16.70;99.90;;;;;;5090507;28;20033;-80
2022/09/02 08:01:33;;;;;;;;;;;16.80;99.90;;;;;;5060894;28;20046;-81
2022/09/02 08:03:59;;;;;;;0.30;0.30;;;17.00;99.90;;;;;;5098549;28;19923;-80
2022/09/02 08:06:27;;;;;;;;;;;17.00;99.90;;;;;;5082214;28;20044;-80
2022/09/02 08:08:54;;;;;;;0.38;0.38;;;17.10;99.90;;;;;;5084846;28;19965;-80
2022/09/02 08:11:20;;;;;;;0.20;0.20;;;17.20;99.90;;;;;;5073412;28;20054;-81
2022/09/02 08:13:46;;;;;;;0.25;0.25;;;17.30;99.90;;;;;;5089702;28;20055;-79
2022/09/02 08:16:12;;;;;;;;;;;17.40;99.90;;;;;;5065593;28;20056;-79
2022/09/02 08:18:37;;;;;;;0.30;0.30;;;17.50;99.90;;;;;;5068708;28;19922;-78
2022/09/02 08:21:03;;;;;;;;;;;17.60;99.90;;;;;;5079217;28;20036;-77
2022/09/02 08:23:29;;;;;;;0.35;0.35;;;17.80;99.90;;;;;;5091658;28;19941;-79
2022/09/02 08:25:58;;;;;;;0.30;0.30;;;17.80;99.90;;;;;;5087607;28;20044;-78
2022/09/02 08:28:24;;;;;;;0.28;0.28;;;18.00;99.90;;;;;;5084308;28;20372;-79
2022/09/02 08:30:53;;;;;;;0.20;0.20;;;18.10;99.90;;;;;;5090444;28;20051;-77
2022/09/02 08:33:21;;;;;;;0.30;0.30;;;18.20;99.90;;;;;;5090186;28;20051;-78
2022/09/02 08:35:50;;;;;;;0.20;0.20;;;18.20;99.90;;;;;;5079819;28;20071;-79
2022/09/02 08:38:16;;;;;;;0.30;0.30;;;18.30;99.90;;;;;;5086716;28;20447;-81
2022/09/02 08:40:43;;;;;;;;;;;18.40;99.90;;;;;;5069843;28;20076;-80
2022/09/02 08:43:38;;;;;;;0.20;0.20;;;18.50;99.90;;;;;;5053736;28;19979;-79
2022/09/02 08:46:10;;;;;;;1.10;0.63;;;18.50;99.90;;;;;;5083898;28;20102;-79
2022/09/02 08:48:44;;;;;;;0.40;0.40;;;18.60;99.90;;;;;;5088798;28;20490;-79
2022/09/02 08:51:15;;;;;;;0.30;0.30;;;18.70;99.90;;;;;;5084005;28;20065;-79
2022/09/02 08:53:57;;;;;;;0.22;0.22;;;18.90;99.90;;;;;;5064843;28;20052;-80
2022/09/02 08:56:27;;;;;;;0.20;0.20;;;19.00;99.90;;;;;;5067767;28;20123;-79
2022/09/02 08:58:53;;;;;;;0.30;0.30;;;19.20;99.90;;;;;;5074563;28;20052;-79
2022/09/02 09:01:31;;;;;;;0.20;0.20;;;19.30;99.90;;;;;;5090307;28;20032;-81
2022/09/02 09:04:02;;;;;;;0.20;0.20;;;19.30;99.90;;;;;;5087466;28;20060;-80
2022/09/02 09:06:55;;;;;;;0.47;0.47;;;19.40;99.90;;;;;;5081151;28;20048;-80
2022/09/02 09:09:33;;;;;;;0.20;0.20;;;19.50;99.90;;;;;;5071045;28;20098;-78
2022/09/02 09:12:13;;;;;;;0.20;0.20;;;19.70;99.90;;;;;;5119651;27;20054;-81
2022/09/02 09:14:54;;;;;;;0.20;0.20;;;19.70;99.90;;;;;;5092830;28;20037;-78
2022/09/02 09:17:25;;;;;;;0.20;0.20;;;19.80;99.90;;;;;;5081826;28;20040;-79
2022/09/02 09:19:53;;;;;;;0.22;0.22;;;19.90;99.90;;;;;;5094282;28;20050;-79
2022/09/02 09:22:25;;;;;;;0.20;0.20;;;20.00;99.90;;;;;;5099334;28;20044;-78
2022/09/02 09:24:51;;;;;;;2.55;0.77;;;20.10;99.90;;;;;;5101509;28;20035;-80
2022/09/02 09:27:20;;;;;;;0.25;0.25;;;20.20;99.90;;;;;;5094694;28;20496;-79
2022/09/02 09:29:47;;;;;;;0.30;0.30;;;20.30;99.90;;;;;;5091269;28;20502;-79
2022/09/02 09:32:56;;;;;;;0.20;0.20;;;20.40;99.90;;;;;;5078451;28;20060;-80
2022/09/02 09:35:24;;;;;;;0.30;0.30;;;20.50;99.90;;;;;;5039657;28;20056;-79
2022/09/02 09:37:54;;;;;;;0.20;0.20;;;20.60;99.90;;;;;;5071426;28;20105;-79
2022/09/02 09:40:24;;;;;;;0.28;0.28;;;20.70;99.90;;;;;;5086689;28;20446;-78
2022/09/02 09:43:12;;;;;;;1.27;0.95;;;20.80;99.90;;;;;;5083377;28;20074;-78
2022/09/02 09:45:50;;;;;;;0.17;0.17;;;20.80;99.90;;;;;;5110570;28;20048;-80
2022/09/02 09:48:15;;;;;;;0.20;0.20;;;20.90;99.90;;;;;;5095771;28;20509;-77
2022/09/02 09:50:42;;;;;;;0.40;0.40;;;21.00;99.90;;;;;;5084470;28;20088;-79
2022/09/02 09:53:20;;;;;;;0.40;0.40;;;21.00;99.90;;;;;;5062873;28;20389;-79
2022/09/02 09:55:53;;;;;;;0.20;0.20;;;21.10;99.90;;;;;;5085299;28;20044;-78
2022/09/02 09:58:21;;;;;;;0.32;0.32;;;21.20;99.90;;;;;;5071718;28;20405;-79
2022/09/02 10:00:47;;;;;;;1.02;0.88;;;21.30;99.90;;;;;;5066818;28;20043;-80
2022/09/02 10:03:29;;;;;;;0.35;0.35;;;21.30;99.90;;;;;;5082789;28;20044;-79
2022/09/02 10:05:57;;;;;;;0.20;0.20;;;21.40;99.90;;;;;;5079659;28;20066;-79
2022/09/02 10:08:26;;;;;;;0.30;0.30;;;21.50;99.90;;;;;;5099158;28;20450;-80
2022/09/02 10:11:25;;;;;;;0.20;0.20;;;21.60;99.90;;;;;;5080039;28;20493;-78
2022/09/02 10:13:59;;;;;;;0.17;0.17;;;21.70;99.20;;;;;;5084161;28;20071;-80
2022/09/02 10:16:27;;;;;;;0.20;0.20;;;21.80;98.60;;;;;;5101385;28;20122;-79
2022/09/02 10:18:56;;;;;;;0.22;0.22;;;21.90;97.60;;;;;;5065041;28;20177;-80
2022/09/02 10:21:28;;;;;;;0.20;0.20;;;21.90;96.80;;;;;;5083999;28;20040;-79
2022/09/02 10:24:35;;;;;;;0.20;0.20;;;21.90;96.60;;;;;;5082318;28;20488;-80
2022/09/02 10:27:07;;;;;;;0.30;0.30;;;22.00;96.10;;;;;;5096134;28;20043;-80
2022/09/02 10:30:03;;;;;;;0.20;0.20;;;22.10;95.50;;;;;;5087029;28;20048;-80
2022/09/02 10:32:45;;;;;;;0.43;0.35;;;22.10;93.60;;;;;;5101003;28;20104;-78
2022/09/02 10:35:30;;;;;;;0.30;0.30;;;22.20;94.20;;;;;;5099326;28;20045;-80
2022/09/02 10:38:23;;;;;;;0.30;0.30;;;22.30;93.30;;;;;;5111696;28;20028;-78
2022/09/02 10:40:57;;;;;;;0.10;0.10;;;22.30;92.70;;;;;;5082076;28;20086;-79
2022/09/02 10:43:45;;;;;;;0.15;0.15;;;22.40;91.40;;;;;;5071284;28;20556;-79
2022/09/02 10:46:19;;;;;;;0.20;0.20;;;22.50;91.40;;;;;;5079191;28;20472;-79
2022/09/02 10:49:14;;;;;;;0.30;0.30;;;22.60;92.90;;;;;;5088249;28;20136;-80
2022/09/02 10:52:05;;;;;;;0.30;0.30;;;22.70;93.20;;;;;;5036987;28;20070;-79
2022/09/02 10:54:34;;;;;;;0.40;0.40;;;22.80;91.10;;;;;;5085986;28;20086;-78
2022/09/02 10:57:25;;;;;;;0.20;0.20;;;22.80;90.10;;;;;;5100215;28;20048;-77
2022/09/02 11:00:08;;;;;;;0.32;0.32;;;22.90;93.80;;;;;;5104464;28;20502;-79
2022/09/02 11:02:55;;;;;;;0.40;0.40;;;23.10;92.80;;;;;;5084704;28;20408;-78
2022/09/02 11:05:49;;;;;;;0.20;0.20;;;23.10;90.90;;;;;;5093652;28;20101;-80
2022/09/02 11:08:25;;;;;;;0.55;0.40;;;23.20;90.20;;;;;;5083178;28;20495;-79
2022/09/02 11:11:10;;;;;;;0.35;0.35;;;23.30;90.50;;;;;;5076596;28;20119;-78
2022/09/02 11:14:00;;;;;;;0.30;0.30;;;23.40;88.00;;;;;;5085641;28;20056;-80
2022/09/02 11:16:47;;;;;;;0.20;0.20;;;23.50;90.10;;;;;;5091590;28;20037;-81
2022/09/02 11:19:38;;;;;;;0.52;0.52;;;23.50;85.50;;;;;;5092416;28;20039;-81
2022/09/02 11:22:23;;;;;;;0.20;0.20;;;23.60;90.10;;;;;;5087827;28;20040;-80
2022/09/02 11:25:13;;;;;;;0.40;0.40;;;23.80;88.40;;;;;;5088680;28;20182;-80
2022/09/02 11:27:47;;;;;;;0.20;0.20;;;23.90;88.20;;;;;;5103691;28;20061;-80
2022/09/02 11:30:20;;;;;;;0.25;0.25;;;24.00;84.10;;;;;;5089000;28;20064;-79
2022/09/02 11:33:14;;;;;;;0.38;0.38;;;24.00;77.00;;;;;;5091326;28;20105;-76
2022/09/02 11:35:41;;;;;;;0.20;0.20;;;24.00;79.80;;;;;;5091764;28;20485;-77
2022/09/02 11:38:28;;;;;;;0.30;0.30;;;24.10;74.90;;;;;;5095772;28;20449;-76
2022/09/02 11:41:03;;;;;;;0.30;0.30;;;24.00;77.70;;;;;;5086010;28;20047;-78
2022/09/02 11:43:40;;;;;;;0.30;0.30;;;24.00;75.20;;;;;;5090155;28;20516;-77
2022/09/02 11:46:29;;;;;;;0.30;0.30;;;24.00;75.50;;;;;;5063523;28;20071;-80
2022/09/02 11:49:29;;;;;;;0.20;0.20;;;24.10;82.30;;;;;;5093871;28;20044;-80
2022/09/02 11:52:25;;;;;;;0.20;0.20;;;24.30;80.20;;;;;;5090046;28;20040;-80
2022/09/02 11:55:06;;;;;;;0.17;0.17;;;24.40;70.50;;;;;;5089530;28;20124;-79
2022/09/02 11:57:33;;;;;;;0.20;0.20;;;24.40;71.80;;;;;;5099252;28;20489;-81
2022/09/02 12:00:05;;;;;;;0.30;0.30;;;24.50;86.70;;;;;;5065722;28;20119;-82
2022/09/02 12:02:45;;;;;;;0.45;0.45;;;24.70;84.50;;;;;;5089848;28;20299;-79
2022/09/02 12:05:30;;;;;;;0.10;0.10;;;;;;;;;;5089584;28;20036;-82
2022/09/02 12:08:00;;;;;;;0.30;0.30;;;24.80;70.80;;;;;;5088748;28;20496;-80
2022/09/02 12:10:48;;;;;;;0.17;0.17;;;24.80;67.70;;;;;;5088859;28;20166;-79
2022/09/02 12:13:36;;;;;;;0.20;0.20;;;24.80;68.60;;;;;;5085107;28;20052;-79
2022/09/02 12:16:22;;;;;;;0.43;0.43;;;24.70;69.80;;;;;;5085125;28;20079;-80
2022/09/02 12:18:54;;;;;;;0.20;0.20;;;24.70;68.10;;;;;;5079573;28;20072;-80
2022/09/02 12:21:22;;;;;;;0.20;0.20;;;24.90;68.70;;;;;;5079580;28;20420;-79
2022/09/02 12:23:47;;;;;;;0.17;0.17;;;24.90;69.80;;;;;;5084779;28;20111;-81
2022/09/02 12:26:16;;;;;;;0.20;0.20;;;25.10;68.00;;;;;;5074437;28;20131;-80
2022/09/02 12:28:46;;;;;;;0.15;0.15;;;25.20;70.00;;;;;;5073660;28;20055;-78
2022/09/02 12:31:14;;;;;;;0.40;0.40;;;25.50;74.90;;;;;;5090667;28;20058;-81
2022/09/02 12:33:45;;;;;;;0.20;0.20;;;25.70;66.60;;;;;;5090142;28;20060;-81
2022/09/02 12:36:37;;;;;;;0.17;0.17;;;25.80;66.90;;;;;;5084103;28;20047;-82
2022/09/02 12:39:21;;;;;;;0.40;0.40;;;25.90;67.30;;;;;;5082425;28;20040;-79
2022/09/02 12:42:05;;;;;;;0.38;0.38;;;25.90;63.00;;;;;;5091820;28;20036;-80
2022/09/02 12:44:50;;;;;;;0.22;0.20;;;26.00;64.90;;;;;;5084956;28;20056;-78
2022/09/02 12:47:21;;;;;;;0.20;0.20;;;26.10;65.40;;;;;;5090112;28;20050;-80
2022/09/02 12:50:08;;;;;;;0.30;0.30;;;26.10;65.10;;;;;;5090266;28;20075;-78
2022/09/02 12:52:36;;;;;;;0.20;0.20;;;26.30;66.70;;;;;;5069793;28;20044;-81
2022/09/02 12:55:12;;;;;;;0.22;0.22;;;26.40;64.80;;;;;;5090442;28;20044;-81
2022/09/02 12:57:44;;;;;;;0.32;0.30;;;26.50;64.30;;;;;;5069271;28;20115;-80
2022/09/02 13:00:27;;;;;;;0.20;0.20;;;26.70;64.50;;;;;;5073126;28;20481;-81
2022/09/02 13:03:22;;;;;;;0.15;0.15;;;26.70;59.00;;;;;;5083056;28;20051;-80
2022/09/02 13:06:24;;;;;;;0.20;0.20;;;26.80;64.30;;;;;;5091507;28;20044;-79
2022/09/02 13:09:21;;;;;;;0.20;0.20;;;27.10;66.50;;;;;;5088793;28;20040;-78
2022/09/02 13:12:01;;;;;;;0.20;0.20;;;27.30;59.70;;;;;;5083747;28;20071;-78
2022/09/02 13:14:42;;;;;;;0.20;0.20;;;27.40;63.00;;;;;;5088042;28;20048;-78
2022/09/02 13:17:46;;;;;;;0.20;0.20;;;27.70;61.60;;;;;;5083097;28;20083;-80